Ride Results

Tom Quilty Gold Cup (03-06-1989)
Ride distance: 160.0 km

Outcomes - Tom Quilty Gold Cup (03-06-1989)
Division No. of Entries Retired / DNE Completed Withdrawn Ineligible V/O Percentage Completed
HW 18 - 8 1 - 9 44.44%
MW 38 - 21 6 1 10 55.26%
LW 19 - 8 2 - 9 42.11%
JN 6 - 3 1 - 2 50.00%
Totals 81 - 40 10 1 30 49.38%
Results - Tom Quilty Gold Cup (03-06-1989)
No. Rider Horse Place Time Leg Speeds Total
Km/Hr
H/R bpm
Heavyweight
3415 Dennis Smith Torremolinos 1 (BC) 11:34:00 13.8, 17.5, 9.9, 16.6 13.83 45, 48, 43, 48, 51 (Avg:47)
3432 Ross McCamish Golden Flag 2 17:40:00 12.1, 14.7, 5.6, 8.7 9.06 32, 48, 57, 53, 45 (Avg:50)
3428 Murray Dalton Sherry 3 18:34:00 10.2, 14.1, 5.8, 8.0 8.62 43, 54, 57, 59, 55 (Avg:56)
3421 Alistair McKeown Pot Luck 4 18:45:00 9.0, 13.0, 6.0, 8.5 8.53 29, 38, 40, 48, 43 (Avg:42)
3422 Gordon Flaherty Sharahd Homer 5 18:52:00 6.9, 16.9, 6.2, 9.2 8.48 42, 50, 47, 46, 45 (Avg:47)
3423 Allan White Mr-Mongo 6 19:01:00 9.2, 12.9, 5.9, 8.2 8.41 33, 39, 46, 60, 47 (Avg:48)
3427 Derek Lamperd Endingo 7 20:40:00 8.6, 12.4, 5.7, 6.8 7.74 36, 48, 44, 50, 48 (Avg:47)
68 Di Rayner Eleazar Trusty 7 20:40:00 7.6, 16.2, 5.4, 7.0 7.74 34, 48, 49, 54, 53 (Avg:51)
63 David Butcher Domil Heart Rate L4 0:00:00 12.1, 14.7, 6.8, 14.3 - 40, 50, 48, 51, 63 (Avg:53)
57 Gerry Drenthe Fawley Muskat Metabolics L3 0:00:00 17.0, 23.0, 5.0 - 34, 49, 49, 42 (Avg:46)
62 Melville Johnson Socialite Heart Rate L3 0:00:00 9.2, 12.9, 5.9 - 38, 50, 54, 65 (Avg:56)
50 Tracey Reed Galveston Heart Rate L3 0:00:00 9.7, 12.9, 5.4 - 34, 53, 54, 66 (Avg:57)
59 Allan Renner Edenfels Pepperina Lame L3 0:00:00 10.5, 15.5, 5.6 - 32, 38, 52, 44 (Avg:44)
65 Keith Davenport Misty Withdrawn L2 0:00:00 - - 35, 48, 49 (Avg:48)
51 Eddy Tyler Dunno Lame L2 0:00:00 12.1, 15.8 - 32, 37, 40 (Avg:38)
64 Bruce Dalton What-A-Sample Heart Rate L1 0:00:00 16.1 - 40, 63 (Avg:63)
53 Kevin Durbridge Cardup Kid Lame L1 0:00:00 10.0 - 34, 52 (Avg:52)
58 Denise Trollope Churinga Babooshka Heart Rate L1 0:00:00 15.4 - 37, 58 (Avg:58)
Middleweight
3411 Tom Thomsen Prince Aussie 1 10:08:00 17.0, 23.0, 10.5, 17.6 15.79 37, 40, 41, 43, 51 (Avg:43)
3413 Jim Farr Sharahd Cassandra 2 10:16:00 15.3, 23.7, 11.0, 17.0 15.58 38, 43, 45, 48, 51 (Avg:46)
3412 Barbara Macdonald Kelly 2 10:16:00 15.3, 23.7, 11.0, 17.0 15.58 32, 43, 48, 51, 51 (Avg:48)
3414 Ray Morley Pelroy William 4 10:45:00 17.0, 23.0, 10.5, 13.8 14.88 46, 40, 44, 48, 55 (Avg:46)
3416 Allan Standfield Toshiba 5 14:16:00 14.4, 20.1, 7.5, 9.4 11.21 38, 44, 56, 58, 57 (Avg:53)
3438 Sue Fearon Ricval Saharri 6 14:19:00 14.6, 18.0, 7.0, 10.7 11.18 27, 47, 45, 47, 45 (Avg:46)
3437 Robert Rzep Marola Khalid 7 14:19:01 14.6, 18.0, 7.0, 10.7 11.18 49, 52, 42, 44, 45 (Avg:45)
3436 Terry Wood Cuchuca 8 14:59:00 12.9, 16.2, 7.3, 9.9 10.68 33, 42, 42, 48, 40 (Avg:43)
3434 Robert Corbett Coolmunda Trazarra 9 15:03:00 12.3, 14.3, 7.2, 11.3 10.63 40, 44, 50, 46, 50 (Avg:47)
3433 Chris Forrester Genie 9 15:03:00 11.9, 14.9, 7.2, 11.3 10.63 36, 50, 47, 54, 53 (Avg:51)
3435 Jill Ross Lionel 9 15:03:00 11.9, 15.0, 7.2, 11.3 10.63 36, 46, 46, 46, 43 (Avg:45)
3431 Jenny McCamish Shea 12 17:40:00 12.1, 14.7, 5.6, 8.7 9.06 36, 44, 50, 52, 38 (Avg:46)
3430 John Jackson Winsome Checky Tott 13 17:44:00 11.9, 15.0, 5.6, 8.6 9.02 34, 46, 49, 49, 50 (Avg:48)
3429 Jack Joynson Matta Mia Saiyad 13 17:44:00 11.9, 15.0, 5.6, 8.5 9.02 48, 43, 48, 50, 42 (Avg:45)
3417 Griselda Hitchcock Palais Princess 15 18:34:00 10.4, 14.6, 5.7, 7.8 8.62 31, 33, 54, 46, 36 (Avg:42)
3418 Matthew Krahnen Tsunami 15 18:34:00 9.7, 13.6, 5.4, 9.4 8.62 44, 52, 50, 53, 45 (Avg:50)
3419 Bruce Scott Brigadier 15 18:34:00 10.0, 14.3, 5.8, 8.0 8.62 40, 44, 50, 54, 52 (Avg:50)
3420 Jenny Brenton Beau 18 18:40:00 15.2, 17.9, 4.5, 7.8 8.57 35, 51, 58, 50, 45 (Avg:51)
4351 Philip Lloyd Yeelirrie Variscite 19 19:08:00 12.8, 15.7, 5.1, 7.0 8.36 35, 49, 40, 50, 46 (Avg:46)
3424 Ellen Critchell Huntington Range O Gold 20 20:00:00 9.7, 14.3, 5.2, 7.2 8.00 33, 44, 47, 50, 49 (Avg:47)
3425 Dianne Bielby Wilberforce 21 20:32:00 7.4, 14.5, 5.8, 7.2 7.79 32, 42, 50, 56, 60 (Avg:52)
12 June Petersen Blue Haze Heart Rate L4 0:00:00 12.2, 16.3, 5.4, 8.7 - 31, 48, 42, 58, 68 (Avg:54)
22 Charles Begley Beans Withdrawn L3 0:00:00 - - 25, 35, 39, 40 (Avg:38)
25 Ted Cousins Capricorn Dancer Heart Rate L3 0:00:00 7.4, 14.5, 5.8 - 38, 52, 54, 81 (Avg:62)
3426 Tony Duffy Cleveland Park Panache Withdrawn L3 0:00:00 - - 38, 55, 60, 60 (Avg:58)
9 Paul Krahnen Dots And Dashes Celebrity Heart Rate L3 0:00:00 17.0, 23.0, 10.5 - 37, 41, 44, 66 (Avg:50)
19 Tracee Males Chip Chase Sadaqa Lame L3 0:00:00 15.4, 23.5, 10.2 - 34, 42, 41, 42 (Avg:41)
41 Carol Rae Calico Withdrawn L3 0:00:00 - - 33, 46, 54, 59 (Avg:53)
8 Patrick Cremasco Newdys Boy Withdrawn L2 0:00:00 - - 34, 48, 48 (Avg:48)
35 Michael Ruwaard Ming Lame L2 0:00:00 12.2, 16.3 - 38, 43, 46 (Avg:44)
17 Pat Standfield Sharahd Geronimo Lame L2 0:00:00 14.4, 20.1 - 36, 51, 50 (Avg:50)
30 Janet Wann Balgownie Bronzewing Lame L2 0:00:00 12.6, 16.1 - 31, 42, 42 (Avg:42)
31 Debbie Cutler Blake Lame L1 0:00:00 8.6 - 33, 44 (Avg:44)
1 Jan Jodrell Yaldon Jarra Lame L1 0:00:00 9.2 - 46, 50 (Avg:50)
39 Bruce Overton Solaway Disqualified L1 0:00:00 19.9 - 42, 48 (Avg:48)
32 Rhonda Hall Henry Withdrawn P/R 0:00:00 - - 55
29 Ady McIntosh Balgownie Matilda Withdrawn P/R 0:00:00 - - 34
4 Jill Shanahan Shalom Lame P/R 0:00:00 - - 37
Lightweight
3439 Rose Freney Hemingbrook Chloe 1 11:34:00 13.8, 17.6, 9.9, 16.6 13.83 36, 44, 42, 51, 54 (Avg:47)
3440 Pauline Birnie Macarda Miss 2 14:31:00 12.6, 16.7, 7.3, 11.2 11.02 40, 46, 44, 51, 49 (Avg:47)
3441 Fiona Helm Strops 3 14:35:00 9.7, 16.4, 7.5, 14.3 10.97 32, 40, 37, 46, 48 (Avg:42)
3442 Darren Helm Billabong Yasan 4 14:35:01 9.7, 16.4, 7.5, 14.3 10.97 41, 44, 50, 52, 54 (Avg:50)
3443 Annette Renner Amity Amara 5 16:21:00 10.5, 15.5, 6.7, 9.7 9.79 32, 43, 49, 49, 40 (Avg:45)
3444 Amanda Rayner Shaba 6 19:07:00 12.8, 15.6, 5.1, 7.0 8.37 31, 38, 36, 40, 40 (Avg:38)
3446 Jenny Horlock Neening Jelita 7 20:00:00 9.7, 12.9, 5.7, 6.8 8.00 33, 39, 38, 46, 42 (Avg:41)
3445 Debbie Rice Balgownie Euroa 8 20:40:00 8.6, 12.4, 5.7, 6.8 7.74 30, 42, 38, 46, 38 (Avg:41)
74 Alan Hall Woodvale Marakesh Lame L4 0:00:00 9.0, 13.1, 5.7, 7.3 - 37, 52, 50, 58, 49 (Avg:52)
78 Robyn Snell Rocci Lame L4 0:00:00 9.0, 12.9, 6.0, 7.8 - 34, 41, 44, 56, 53 (Avg:48)
86 Tanya Hall Springwood Highland Mist Lame L3 0:00:00 12.1, 14.8, 4.6 - 41, 44, 46, 45 (Avg:45)
75 Sandra Kenny Cyclone Dan Lame L3 0:00:00 12.6, 16.7, 7.3 - 36, 49, 51, 60 (Avg:53)
85 Anita Lunt Jumburra Corbella Lame L3 0:00:00 9.7, 14.3, 5.9 - 36, 41, 46, 49 (Avg:45)
84 Terena Davis Classic Prince Lame L2 0:00:00 9.7, 12.9 - 41, 42, 42 (Avg:42)
73443 Samantha Hood Tanzi Heart Rate L2 0:00:00 7.4, 14.5 - 44, 46, 64 (Avg:55)
87 Vivien Kitchen Beau Soleil Lame L2 0:00:00 10.3, 13.7 - 50, 48, 50 (Avg:49)
69 Arnold Lewis Just A Dream Withdrawn L2 0:00:00 - - 36, 44, 44 (Avg:44)
76 Monique Campbell Talari Technique Withdrawn L1 0:00:00 - - 33, 42 (Avg:42)
82 Joanna McCord Leedale Jadea Lame L1 0:00:00 9.2 - 35, 41 (Avg:41)
Junior
3447 Sarah Shanahan Rusty 1 10:45:00 17.0, 23.0, 10.4, 14.1 14.88 32, 50, 48, 56, 52 (Avg:51)
3448 Ken Falls Sharahd Melodie 2 11:05:00 12.1, 17.1, 11.3, 20.5 14.44 39, 41, 46, 48, 57 (Avg:48)
3449 Melissa Brett Zadrah 3 20:31:00 8.6, 12.4, 5.7, 6.9 7.80 34, 38, 45, 50, 46 (Avg:44)
93 Brenton Ruwaard Red Quest Heart Rate L3 0:00:00 9.7, 12.9, 5.4 - 27, 49, 40, 63 (Avg:50)
89 Sue Edmonds Denmark Monique Lame L1 0:00:00 12.1 - 42, 45 (Avg:45)
92 Sue McGuckin Regency Buck Withdrawn L1 0:00:00 - - 35, 36 (Avg:36)